Time;durP1;ratioP1;P1;durP2;ratioP2;P2;SDS_P1;SDS_P2;PMS_P1;PMS_P2;Temp;Humidity;BMP_temperature;BMP_pressure;BME280_temperature;BME280_humidity;BME280_pressure;Samples;Min_cycle;Max_cycle;Signal;HPM_P1;HPM_P2
2023/06/04 00:00:46;;;;;;;7.75;3.55;;;;;;;;;;5029582;28;20034;-61
2023/06/04 00:03:12;;;;;;;8.33;3.90;;;;;;;;;;5018345;28;20064;-61
2023/06/04 00:05:37;;;;;;;7.32;3.63;;;;;;;;;;5025590;28;20033;-61
2023/06/04 00:08:02;;;;;;;8.50;3.65;;;;;;;;;;5023415;28;20045;-61
2023/06/04 00:10:27;;;;;;;7.13;3.33;;;;;;;;;;5029890;28;20029;-61
2023/06/04 00:12:52;;;;;;;6.35;3.05;;;;;;;;;;5027386;28;20045;-61
2023/06/04 00:15:18;;;;;;;6.97;3.33;;;;;;;;;;5031988;28;20022;-61
2023/06/04 00:17:43;;;;;;;8.02;3.75;;;;;;;;;;5017730;28;20091;-61
2023/06/04 00:20:09;;;;;;;7.57;3.13;;;;;;;;;;5016898;28;20021;-61
2023/06/04 00:22:34;;;;;;;6.88;3.15;;;;;;;;;;5029417;28;20127;-61
2023/06/04 00:24:59;;;;;;;5.40;2.57;;;;;;;;;;5022402;28;20068;-61
2023/06/04 00:27:24;;;;;;;7.20;2.87;;;;;;;;;;5028516;28;20120;-61
2023/06/04 00:29:49;;;;;;;6.60;2.60;;;;;;;;;;5032621;28;20101;-61
2023/06/04 00:32:14;;;;;;;7.15;3.10;;;;;;;;;;5024105;28;20620;-61
2023/06/04 00:34:40;;;;;;;6.77;2.67;;;;;;;;;;5021626;28;20025;-61
2023/06/04 00:37:05;;;;;;;7.57;2.60;;;;;;;;;;5012499;28;20057;-61
2023/06/04 00:39:30;;;;;;;7.73;3.00;;;;;;;;;;5031230;28;20021;-61
2023/06/04 00:41:55;;;;;;;6.43;2.80;;;;;;;;;;5021242;28;20021;-61
2023/06/04 00:44:23;;;;;;;6.57;2.95;;;;;;;;;;5016476;28;20063;-61
2023/06/04 00:46:49;;;;;;;9.57;2.95;;;;;;;;;;5027824;28;20032;-61
2023/06/04 00:49:14;;;;;;;7.50;2.90;;;;;;;;;;5030849;28;20104;-61
2023/06/04 00:51:40;;;;;;;5.75;2.53;;;;;;;;;;5022782;28;20026;-62
2023/06/04 00:54:11;;;;;;;6.30;2.90;;;;;;;;;;5024973;28;20036;-61
2023/06/04 00:56:37;;;;;;;6.18;2.88;;;;;;;;;;5023412;28;20022;-61
2023/06/04 00:59:02;;;;;;;6.03;2.38;;;;;;;;;;5023777;28;20103;-61
2023/06/04 01:01:33;;;;;;;6.65;2.67;;;;;;;;;;5015452;28;20234;-62
2023/06/04 01:04:00;;;;;;;6.00;2.30;;;;;;;;;;5027260;28;20009;-61
2023/06/04 01:06:35;;;;;;;6.32;2.50;;;;;;;;;;5020349;28;20029;-62
2023/06/04 01:09:00;;;;;;;7.35;2.65;;;;;;;;;;5026790;28;20025;-62
2023/06/04 01:11:32;;;;;;;5.88;2.58;;;;;;;;;;5022335;28;20021;-61
2023/06/04 01:13:57;;;;;;;5.97;2.50;;;;;;;;;;5022731;28;20021;-61
2023/06/04 01:16:22;;;;;;;6.77;2.63;;;;;;;;;;5018661;28;20156;-62
2023/06/04 01:18:48;;;;;;;8.00;2.45;;;;;;;;;;5015316;28;20616;-62
2023/06/04 01:21:18;;;;;;;6.00;2.70;;;;;;;;;;5027393;28;20033;-62
2023/06/04 01:23:46;;;;;;;7.45;2.83;;;;;;;;;;5026232;28;20013;-61
2023/06/04 01:26:11;;;;;;;6.03;2.30;;;;;;;;;;5025195;28;20366;-62
2023/06/04 01:28:37;;;;;;;4.93;2.03;;;;;;;;;;5021308;28;20024;-61
2023/06/04 01:31:02;;;;;;;6.35;2.50;;;;;;;;;;5022535;28;20032;-62
2023/06/04 01:33:28;;;;;;;5.72;2.38;;;;;;;;;;5020607;28;20029;-61
2023/06/04 01:35:53;;;;;;;6.10;2.70;;;;;;;;;;5025998;28;20051;-62
2023/06/04 01:38:18;;;;;;;4.97;2.15;;;;;;;;;;5026750;28;20041;-62
2023/06/04 01:40:43;;;;;;;5.03;2.37;;;;;;;;;;5025997;28;20032;-62
2023/06/04 01:43:08;;;;;;;6.47;2.53;;;;;;;;;;5020942;28;20029;-61
2023/06/04 01:45:34;;;;;;;5.50;2.30;;;;;;;;;;5017450;28;20398;-61
2023/06/04 01:48:01;;;;;;;6.40;2.33;;;;;;;;;;5024573;28;20021;-62
2023/06/04 01:50:26;;;;;;;4.25;1.85;;;;;;;;;;5031640;28;20029;-62
2023/06/04 01:52:51;;;;;;;7.17;2.20;;;;;;;;;;5014945;28;20021;-61
2023/06/04 01:55:17;;;;;;;5.37;2.20;;;;;;;;;;5022968;28;20060;-62
2023/06/04 01:57:43;;;;;;;7.50;2.20;;;;;;;;;;5026224;28;20026;-62
2023/06/04 02:00:10;;;;;;;7.03;1.98;;;;;;;;;;5028059;28;20022;-61
2023/06/04 02:02:36;;;;;;;4.95;1.83;;;;;;;;;;5012628;28;20080;-61
2023/06/04 02:05:01;;;;;;;5.68;2.00;;;;;;;;;;5012749;28;20567;-61
2023/06/04 02:07:26;;;;;;;6.53;2.10;;;;;;;;;;5027140;28;20445;-61
2023/06/04 02:09:51;;;;;;;5.65;2.00;;;;;;;;;;5020678;28;20025;-62
2023/06/04 02:12:17;;;;;;;6.00;1.83;;;;;;;;;;5011689;28;20029;-61
2023/06/04 02:14:42;;;;;;;4.80;1.90;;;;;;;;;;5030109;28;20021;-64
2023/06/04 02:17:12;;;;;;;5.05;2.00;;;;;;;;;;5026780;28;20041;-62
2023/06/04 02:19:44;;;;;;;4.93;1.90;;;;;;;;;;5022271;28;20033;-62
2023/06/04 02:22:12;;;;;;;5.97;1.80;;;;;;;;;;5027648;28;20481;-62
2023/06/04 02:24:38;;;;;;;4.88;1.55;;;;;;;;;;5014428;28;20049;-62
2023/06/04 02:27:05;;;;;;;5.72;1.48;;;;;;;;;;5016457;28;20096;-62
2023/06/04 02:29:30;;;;;;;5.28;1.58;;;;;;;;;;5018924;28;20083;-62
2023/06/04 02:31:55;;;;;;;5.68;1.88;;;;;;;;;;5022397;28;20477;-62
2023/06/04 02:34:20;;;;;;;5.05;1.50;;;;;;;;;;5019403;28;20025;-62
2023/06/04 02:36:48;;;;;;;5.95;1.77;;;;;;;;;;5019115;28;20104;-61
2023/06/04 02:39:13;;;;;;;4.57;1.80;;;;;;;;;;5013307;28;20032;-61
2023/06/04 02:41:38;;;;;;;4.70;1.73;;;;;;;;;;5020881;28;20025;-62
2023/06/04 02:44:03;;;;;;;5.25;1.85;;;;;;;;;;5022463;28;20029;-61
2023/06/04 02:46:28;;;;;;;5.32;2.00;;;;;;;;;;5020564;28;20157;-62
2023/06/04 02:48:53;;;;;;;5.82;1.92;;;;;;;;;;5016735;28;20030;-61
2023/06/04 02:51:18;;;;;;;5.40;2.10;;;;;;;;;;5017060;28;20025;-62
2023/06/04 02:53:45;;;;;;;4.90;1.90;;;;;;;;;;5022000;28;21035;-62
2023/06/04 02:56:10;;;;;;;6.40;2.10;;;;;;;;;;5021544;28;20075;-62
2023/06/04 02:58:39;;;;;;;6.20;2.20;;;;;;;;;;5029443;28;20592;-61
2023/06/04 03:01:04;;;;;;;7.63;2.10;;;;;;;;;;5025151;28;20026;-62
2023/06/04 03:03:31;;;;;;;5.18;1.77;;;;;;;;;;5024928;28;20018;-61
2023/06/04 03:05:56;;;;;;;5.07;2.00;;;;;;;;;;5026980;28;20096;-62
2023/06/04 03:08:21;;;;;;;5.10;2.15;;;;;;;;;;5026838;28;20117;-61
2023/06/04 03:10:46;;;;;;;5.30;1.90;;;;;;;;;;5022893;28;20026;-61
2023/06/04 03:13:11;;;;;;;6.00;2.30;;;;;;;;;;5024744;28;20038;-61
2023/06/04 03:15:38;;;;;;;6.25;1.85;;;;;;;;;;5028111;28;20436;-61
2023/06/04 03:18:04;;;;;;;5.70;2.00;;;;;;;;;;5021859;28;20033;-62
2023/06/04 03:20:29;;;;;;;5.20;1.90;;;;;;;;;;5025397;28;20029;-61
2023/06/04 03:22:54;;;;;;;4.60;1.63;;;;;;;;;;5021190;28;20025;-62
2023/06/04 03:25:19;;;;;;;5.38;1.88;;;;;;;;;;5028939;28;20469;-62
2023/06/04 03:27:45;;;;;;;5.83;1.80;;;;;;;;;;5026441;28;20045;-62
2023/06/04 03:30:10;;;;;;;5.50;2.08;;;;;;;;;;5029661;28;20451;-63
2023/06/04 03:32:35;;;;;;;5.53;1.85;;;;;;;;;;5023638;28;20537;-62
2023/06/04 03:35:01;;;;;;;4.75;1.73;;;;;;;;;;5025970;28;20013;-62
2023/06/04 03:37:26;;;;;;;4.53;1.70;;;;;;;;;;5029047;28;20037;-61
2023/06/04 03:39:51;;;;;;;4.15;1.60;;;;;;;;;;5020604;28;20033;-62
2023/06/04 03:42:17;;;;;;;6.83;1.73;;;;;;;;;;5026069;28;20025;-61
2023/06/04 03:44:42;;;;;;;5.63;1.90;;;;;;;;;;5017117;28;20025;-61
2023/06/04 03:47:07;;;;;;;4.47;1.73;;;;;;;;;;5029459;28;20054;-62
2023/06/04 03:49:32;;;;;;;4.80;1.60;;;;;;;;;;5020085;28;20030;-62
2023/06/04 03:51:57;;;;;;;5.10;1.50;;;;;;;;;;5017990;28;20114;-62
2023/06/04 03:54:22;;;;;;;5.35;1.90;;;;;;;;;;5025067;28;20071;-61
2023/06/04 03:56:47;;;;;;;5.17;1.40;;;;;;;;;;5018299;28;20025;-62
2023/06/04 03:59:13;;;;;;;5.32;1.85;;;;;;;;;;5029175;28;20025;-62
2023/06/04 04:01:38;;;;;;;3.77;1.40;;;;;;;;;;5020363;28;20041;-62
2023/06/04 04:04:04;;;;;;;4.35;1.60;;;;;;;;;;5021373;28;20029;-62
2023/06/04 04:06:30;;;;;;;4.82;1.50;;;;;;;;;;5023858;28;20033;-62
2023/06/04 04:08:55;;;;;;;5.27;1.73;;;;;;;;;;5021681;28;20021;-62
2023/06/04 04:11:20;;;;;;;5.57;1.80;;;;;;;;;;5027839;28;20030;-60
2023/06/04 04:13:46;;;;;;;5.40;1.50;;;;;;;;;;5023906;28;20029;-61
2023/06/04 04:16:11;;;;;;;5.70;1.80;;;;;;;;;;5025762;28;20033;-62
2023/06/04 04:18:36;;;;;;;4.70;1.80;;;;;;;;;;5021627;28;20053;-62
2023/06/04 04:21:02;;;;;;;6.33;1.70;;;;;;;;;;5025696;28;20029;-66
2023/06/04 04:23:27;;;;;;;5.95;2.35;;;;;;;;;;5021794;28;20479;-62
2023/06/04 04:25:53;;;;;;;4.97;1.60;;;;;;;;;;5025809;28;20030;-60
2023/06/04 04:28:18;;;;;;;6.78;1.70;;;;;;;;;;5017801;28;20026;-61
2023/06/04 04:30:44;;;;;;;6.78;1.90;;;;;;;;;;5024518;28;20018;-61
2023/06/04 04:33:10;;;;;;;4.57;1.57;;;;;;;;;;5025771;28;20029;-60
2023/06/04 04:35:35;;;;;;;7.05;1.95;;;;;;;;;;5019651;28;20040;-60
2023/06/04 04:38:04;;;;;;;4.55;1.67;;;;;;;;;;5026058;28;20026;-61
2023/06/04 04:40:29;;;;;;;4.25;1.60;;;;;;;;;;5015788;28;20025;-61
2023/06/04 04:42:54;;;;;;;5.68;2.22;;;;;;;;;;5015999;28;20040;-62
2023/06/04 04:45:20;;;;;;;4.25;1.60;;;;;;;;;;5022288;28;20018;-62
2023/06/04 04:47:46;;;;;;;4.25;1.73;;;;;;;;;;5025640;28;20030;-62
2023/06/04 04:50:11;;;;;;;4.68;1.58;;;;;;;;;;5019159;28;20025;-62
2023/06/04 04:52:36;;;;;;;5.10;1.60;;;;;;;;;;5025274;28;20025;-60
2023/06/04 04:55:02;;;;;;;5.70;1.73;;;;;;;;;;5024723;28;20046;-61
2023/06/04 04:57:27;;;;;;;4.32;1.65;;;;;;;;;;5025762;28;20512;-61
2023/06/04 04:59:53;;;;;;;4.07;1.70;;;;;;;;;;5023490;28;20014;-61
2023/06/04 05:02:18;;;;;;;4.63;1.70;;;;;;;;;;5024051;28;20400;-61
2023/06/04 05:04:43;;;;;;;3.90;1.50;;;;;;;;;;5027158;28;20018;-61
2023/06/04 05:07:08;;;;;;;4.10;1.60;;;;;;;;;;5030504;28;20017;-62
2023/06/04 05:09:33;;;;;;;4.20;1.50;;;;;;;;;;5022891;28;20038;-61
2023/06/04 05:11:58;;;;;;;4.38;1.45;;;;;;;;;;5019934;28;20071;-61
2023/06/04 05:14:23;;;;;;;3.70;1.30;;;;;;;;;;5018813;28;20029;-61
2023/06/04 05:16:49;;;;;;;4.78;1.40;;;;;;;;;;5023560;28;20064;-62
2023/06/04 05:19:15;;;;;;;6.63;1.60;;;;;;;;;;5024316;28;20018;-62
2023/06/04 05:21:40;;;;;;;3.42;1.40;;;;;;;;;;5016606;28;20053;-61
2023/06/04 05:24:06;;;;;;;3.97;1.50;;;;;;;;;;5020820;28;20495;-61
2023/06/04 05:26:32;;;;;;;4.77;1.50;;;;;;;;;;5020960;28;20044;-61
2023/06/04 05:28:58;;;;;;;4.75;1.40;;;;;;;;;;5024745;28;20044;-61
2023/06/04 05:31:26;;;;;;;4.85;1.63;;;;;;;;;;5022449;28;20474;-61
2023/06/04 05:33:52;;;;;;;4.45;1.45;;;;;;;;;;5023166;28;20083;-61
2023/06/04 05:36:17;;;;;;;4.60;1.35;;;;;;;;;;5026184;28;20104;-61
2023/06/04 05:38:42;;;;;;;4.50;1.50;;;;;;;;;;5029706;28;20107;-61
2023/06/04 05:41:07;;;;;;;6.15;1.30;;;;;;;;;;5020780;28;20022;-61
2023/06/04 05:43:32;;;;;;;4.40;1.45;;;;;;;;;;5026635;28;20131;-61
2023/06/04 05:45:57;;;;;;;4.80;1.70;;;;;;;;;;5029897;28;20021;-61
2023/06/04 05:48:22;;;;;;;3.80;1.33;;;;;;;;;;5020546;28;20455;-61
2023/06/04 05:50:48;;;;;;;4.72;1.30;;;;;;;;;;5015995;28;20026;-61
2023/06/04 05:53:13;;;;;;;3.93;1.47;;;;;;;;;;5022296;28;20092;-61
2023/06/04 05:55:38;;;;;;;6.28;1.77;;;;;;;;;;5021841;28;20102;-61
2023/06/04 05:58:03;;;;;;;4.10;1.30;;;;;;;;;;5012658;28;20184;-60
2023/06/04 06:00:29;;;;;;;3.87;1.37;;;;;;;;;;5014907;28;20044;-61
2023/06/04 06:02:55;;;;;;;4.47;1.40;;;;;;;;;;5016026;28;20076;-62
2023/06/04 06:05:20;;;;;;;6.03;1.75;;;;;;;;;;5023134;28;20358;-61
2023/06/04 06:07:45;;;;;;;3.45;1.10;;;;;;;;;;5023545;28;20032;-62
2023/06/04 06:10:11;;;;;;;4.22;1.80;;;;;;;;;;5026231;28;20075;-61
2023/06/04 06:12:36;;;;;;;4.22;1.45;;;;;;;;;;5019997;28;20121;-61
2023/06/04 06:15:01;;;;;;;4.97;1.57;;;;;;;;;;5012812;28;20041;-61
2023/06/04 06:17:27;;;;;;;4.97;1.50;;;;;;;;;;5012972;28;20132;-61
2023/06/04 06:19:52;;;;;;;5.28;1.60;;;;;;;;;;5023753;28;20481;-61
2023/06/04 06:22:18;;;;;;;4.93;1.50;;;;;;;;;;5022044;28;20029;-61
2023/06/04 06:24:43;;;;;;;5.95;1.60;;;;;;;;;;5016320;28;20030;-61
2023/06/04 06:27:08;;;;;;;5.37;1.70;;;;;;;;;;5019867;28;20030;-61
2023/06/04 06:29:33;;;;;;;6.78;1.30;;;;;;;;;;5021128;28;20018;-61
2023/06/04 06:31:59;;;;;;;4.20;1.42;;;;;;;;;;5026177;28;20033;-61
2023/06/04 06:34:24;;;;;;;4.78;1.25;;;;;;;;;;5029906;28;20029;-61
2023/06/04 06:36:49;;;;;;;3.93;1.40;;;;;;;;;;5031549;28;20504;-61
2023/06/04 06:39:15;;;;;;;4.37;1.17;;;;;;;;;;5025179;28;20056;-61
2023/06/04 06:41:40;;;;;;;4.13;1.40;;;;;;;;;;5030900;28;20544;-61
2023/06/04 06:44:05;;;;;;;4.80;1.48;;;;;;;;;;5013664;28;20022;-61
2023/06/04 06:46:30;;;;;;;4.00;1.58;;;;;;;;;;5012745;28;20504;-60
2023/06/04 06:48:56;;;;;;;4.90;1.20;;;;;;;;;;5012878;28;20118;-60
2023/06/04 06:51:21;;;;;;;3.92;1.60;;;;;;;;;;5025519;28;20048;-61
2023/06/04 06:53:46;;;;;;;3.95;1.30;;;;;;;;;;5021376;28;20033;-60
2023/06/04 06:56:11;;;;;;;5.28;1.60;;;;;;;;;;5023183;28;20034;-62
2023/06/04 06:58:36;;;;;;;5.05;1.65;;;;;;;;;;5041676;28;20519;-60
2023/06/04 07:01:01;;;;;;;3.38;1.20;;;;;;;;;;5032452;28;20025;-61
2023/06/04 07:03:27;;;;;;;5.00;1.30;;;;;;;;;;5029347;28;20034;-60
2023/06/04 07:05:52;;;;;;;4.90;1.47;;;;;;;;;;5028021;28;20420;-60
2023/06/04 07:08:17;;;;;;;4.78;1.25;;;;;;;;;;5025618;28;20022;-59
2023/06/04 07:10:42;;;;;;;5.40;1.37;;;;;;;;;;5026769;28;20057;-59
2023/06/04 07:13:07;;;;;;;2.80;1.00;;;;;;;;;;5021201;28;20099;-59
2023/06/04 07:15:32;;;;;;;5.75;1.30;;;;;;;;;;5026937;28;20024;-59
2023/06/04 07:17:58;;;;;;;4.57;1.17;;;;;;;;;;5028545;28;20014;-61
2023/06/04 07:20:23;;;;;;;3.60;1.20;;;;;;;;;;5040705;28;20488;-62
2023/06/04 07:22:48;;;;;;;4.83;1.37;;;;;;;;;;5025341;28;20654;-61
2023/06/04 07:25:13;;;;;;;4.10;1.30;;;;;;;;;;5033316;28;20520;-61
2023/06/04 07:27:38;;;;;;;5.45;1.50;;;;;;;;;;5033747;28;20064;-59
2023/06/04 07:30:04;;;;;;;5.57;1.30;;;;;;;;;;5033095;28;20030;-61
2023/06/04 07:32:29;;;;;;;4.97;1.05;;;;;;;;;;5033229;28;20435;-61
2023/06/04 07:34:55;;;;;;;3.72;1.20;;;;;;;;;;5033198;28;20030;-61
2023/06/04 07:37:20;;;;;;;4.23;1.30;;;;;;;;;;5031593;28;20029;-61
2023/06/04 07:39:45;;;;;;;4.57;1.20;;;;;;;;;;5033114;28;20032;-61
2023/06/04 07:42:10;;;;;;;4.43;1.33;;;;;;;;;;5032156;28;20362;-61
2023/06/04 07:44:36;;;;;;;3.53;1.20;;;;;;;;;;5032392;28;20120;-60
2023/06/04 07:47:01;;;;;;;4.95;1.35;;;;;;;;;;5032876;28;20485;-60
2023/06/04 07:49:26;;;;;;;4.47;1.20;;;;;;;;;;5032223;28;20024;-60
2023/06/04 07:51:52;;;;;;;4.20;1.20;;;;;;;;;;5033029;28;20118;-61
2023/06/04 07:54:17;;;;;;;3.47;1.20;;;;;;;;;;5025102;28;20041;-60
2023/06/04 07:56:42;;;;;;;4.40;1.27;;;;;;;;;;5032929;28;20477;-59
2023/06/04 07:59:07;;;;;;;3.30;1.23;;;;;;;;;;5032543;28;20025;-61
2023/06/04 08:01:32;;;;;;;3.55;1.23;;;;;;;;;;5032608;28;20040;-61
2023/06/04 08:03:58;;;;;;;3.88;1.13;;;;;;;;;;5033182;28;20049;-60
2023/06/04 08:06:24;;;;;;;;;;;;;;;;;;5033278;28;20059;-60
2023/06/04 08:08:50;;;;;;;7.43;1.20;;;;;;;;;;5023314;28;19952;-60
2023/06/04 08:11:15;;;;;;;2.97;1.02;;;;;;;;;;5032314;28;20161;-60
2023/06/04 08:13:40;;;;;;;3.30;1.20;;;;;;;;;;5032799;28;20384;-60
2023/06/04 08:16:06;;;;;;;3.67;1.00;;;;;;;;;;5032573;28;20068;-60
2023/06/04 08:18:31;;;;;;;5.70;1.20;;;;;;;;;;5032330;28;20488;-61
2023/06/04 08:20:56;;;;;;;2.90;1.08;;;;;;;;;;5031856;28;20546;-61
2023/06/04 08:23:21;;;;;;;3.60;1.20;;;;;;;;;;5026853;28;20452;-60
2023/06/04 08:25:46;;;;;;;3.92;1.02;;;;;;;;;;5031259;28;20029;-60
2023/06/04 08:28:19;;;;;;;4.75;0.90;;;;;;;;;;5030365;28;20035;-61
2023/06/04 08:30:45;;;;;;;4.45;1.10;;;;;;;;;;5012581;28;20026;-60
2023/06/04 08:33:10;;;;;;;4.18;1.00;;;;;;;;;;5012962;28;20017;-60
2023/06/04 08:35:35;;;;;;;4.20;1.00;;;;;;;;;;5012956;28;20386;-60
2023/06/04 08:38:01;;;;;;;3.88;1.10;;;;;;;;;;5012474;28;20154;-60
2023/06/04 08:40:26;;;;;;;2.77;0.93;;;;;;;;;;5022723;28;20018;-60
2023/06/04 08:42:57;;;;;;;3.58;1.20;;;;;;;;;;5032025;28;20056;-61
2023/06/04 08:45:23;;;;;;;3.40;1.00;;;;;;;;;;5032044;28;20473;-61
2023/06/04 08:47:49;;;;;;;3.85;1.10;;;;;;;;;;5031949;28;20110;-60
2023/06/04 08:50:16;;;;;;;3.65;1.10;;;;;;;;;;5031613;28;20044;-60
2023/06/04 08:52:41;;;;;;;4.18;1.17;;;;;;;;;;5031499;28;20037;-60
2023/06/04 08:55:08;;;;;;;3.00;0.80;;;;;;;;;;5028931;28;20025;-61
2023/06/04 08:57:33;;;;;;;3.53;1.10;;;;;;;;;;5023333;28;20028;-62
2023/06/04 08:59:58;;;;;;;2.80;1.00;;;;;;;;;;5031217;28;20408;-60
2023/06/04 09:02:26;;;;;;;2.90;0.88;;;;;;;;;;5029905;28;20021;-60
2023/06/04 09:04:52;;;;;;;3.08;1.05;;;;;;;;;;5032018;28;20025;-60
2023/06/04 09:07:17;;;;;;;3.37;0.90;;;;;;;;;;5020606;28;20026;-60
2023/06/04 09:09:43;;;;;;;4.87;0.90;;;;;;;;;;5031789;28;20469;-60
2023/06/04 09:12:08;;;;;;;;;;;;;;;;;;5032676;28;20468;-60
2023/06/04 09:14:33;;;;;;;4.05;0.93;;;;;;;;;;5032233;28;20331;-61
2023/06/04 09:16:59;;;;;;;2.35;0.73;;;;;;;;;;5031682;28;20021;-60
2023/06/04 09:19:24;;;;;;;3.67;0.90;;;;;;;;;;5031462;28;20025;-60
2023/06/04 09:21:54;;;;;;;4.53;1.10;;;;;;;;;;5029083;28;20029;-60
2023/06/04 09:24:20;;;;;;;2.95;0.90;;;;;;;;;;5031274;28;20530;-61
2023/06/04 09:26:46;;;;;;;4.72;0.98;;;;;;;;;;5031346;28;20385;-60
2023/06/04 09:29:11;;;;;;;2.75;0.90;;;;;;;;;;5030885;28;20025;-61
2023/06/04 09:31:38;;;;;;;7.07;1.00;;;;;;;;;;5015126;28;20444;-61
2023/06/04 09:34:03;;;;;;;3.50;1.02;;;;;;;;;;5011606;28;20021;-60
2023/06/04 09:36:31;;;;;;;2.90;0.90;;;;;;;;;;5013736;28;20072;-60
2023/06/04 09:38:57;;;;;;;3.17;0.88;;;;;;;;;;5028648;28;20074;-61
2023/06/04 09:41:22;;;;;;;3.10;0.80;;;;;;;;;;5029373;28;20033;-60
2023/06/04 09:43:47;;;;;;;4.43;0.98;;;;;;;;;;5031174;28;20026;-60
2023/06/04 09:46:13;;;;;;;3.00;0.95;;;;;;;;;;5030846;28;20064;-60
2023/06/04 09:48:38;;;;;;;3.85;0.90;;;;;;;;;;5030535;28;20067;-60
2023/06/04 09:51:08;;;;;;;3.25;0.85;;;;;;;;;;5028462;28;20013;-60
2023/06/04 09:53:33;;;;;;;4.35;1.02;;;;;;;;;;5022539;28;20108;-60
2023/06/04 09:55:59;;;;;;;4.27;0.93;;;;;;;;;;5031032;28;20484;-60
2023/06/04 09:58:25;;;;;;;4.47;1.00;;;;;;;;;;5030950;28;20009;-61
2023/06/04 10:00:51;;;;;;;3.15;0.82;;;;;;;;;;5030260;28;20021;-61
2023/06/04 10:03:19;;;;;;;2.90;1.00;;;;;;;;;;5030698;28;20025;-60
2023/06/04 10:05:44;;;;;;;3.58;0.93;;;;;;;;;;5022888;28;20056;-60
2023/06/04 10:08:10;;;;;;;4.90;1.10;;;;;;;;;;5021657;28;20052;-61
2023/06/04 10:10:36;;;;;;;;;;;;;;;;;;5031070;28;20031;-61
2023/06/04 10:13:06;;;;;;;3.70;1.00;;;;;;;;;;5031345;28;19905;-60
2023/06/04 10:15:34;;;;;;;3.30;0.82;;;;;;;;;;5030439;28;20021;-60
2023/06/04 10:17:59;;;;;;;3.65;0.98;;;;;;;;;;5028725;28;20021;-59
2023/06/04 10:20:25;;;;;;;3.63;0.90;;;;;;;;;;5026361;28;20029;-61
2023/06/04 10:22:50;;;;;;;3.28;0.93;;;;;;;;;;5024417;28;20021;-60
2023/06/04 10:25:16;;;;;;;3.72;1.10;;;;;;;;;;5030378;28;20481;-59
2023/06/04 10:27:41;;;;;;;3.47;0.80;;;;;;;;;;5030434;28;20034;-62
2023/06/04 10:30:06;;;;;;;3.10;1.00;;;;;;;;;;5029692;28;20031;-60
2023/06/04 10:32:31;;;;;;;4.85;1.20;;;;;;;;;;5019191;28;20022;-59
2023/06/04 10:34:57;;;;;;;3.10;0.90;;;;;;;;;;5012155;28;20030;-61
2023/06/04 10:37:25;;;;;;;3.45;1.10;;;;;;;;;;5029995;28;20132;-61
2023/06/04 10:39:52;;;;;;;3.53;1.10;;;;;;;;;;5029610;28;20116;-59
2023/06/04 10:42:18;;;;;;;2.88;1.00;;;;;;;;;;5030271;28;20032;-59
2023/06/04 10:44:44;;;;;;;4.68;1.17;;;;;;;;;;5028503;28;20017;-59
2023/06/04 10:47:21;;;;;;;3.40;1.05;;;;;;;;;;5030572;28;20034;-59
2023/06/04 10:49:46;;;;;;;2.90;0.85;;;;;;;;;;5028326;28;20059;-61
2023/06/04 10:52:11;;;;;;;5.20;0.90;;;;;;;;;;5022794;28;20432;-60
2023/06/04 10:54:36;;;;;;;4.93;1.27;;;;;;;;;;5029809;28;20056;-60
2023/06/04 10:57:10;;;;;;;5.90;1.10;;;;;;;;;;5029991;28;20026;-61
2023/06/04 10:59:35;;;;;;;3.30;1.00;;;;;;;;;;5030161;28;20108;-61
2023/06/04 11:02:07;;;;;;;3.00;1.00;;;;;;;;;;5030128;28;20101;-61
2023/06/04 11:04:32;;;;;;;2.75;1.00;;;;;;;;;;5029886;28;20120;-60
2023/06/04 11:07:19;;;;;;;4.10;1.10;;;;;;;;;;5019526;28;20477;-61
2023/06/04 11:09:48;;;;;;;3.78;1.20;;;;;;;;;;5009897;28;20049;-60
2023/06/04 11:12:13;;;;;;;3.83;1.15;;;;;;;;;;5010023;28;20584;-58
2023/06/04 11:14:39;;;;;;;3.50;1.00;;;;;;;;;;5030706;28;20127;-60
2023/06/04 11:17:11;;;;;;;3.22;1.10;;;;;;;;;;5032339;28;20021;-59
2023/06/04 11:19:36;;;;;;;3.30;0.88;;;;;;;;;;5033660;28;20036;-59
2023/06/04 11:22:02;;;;;;;3.75;1.15;;;;;;;;;;5034115;28;20389;-59
2023/06/04 11:24:27;;;;;;;3.90;1.20;;;;;;;;;;5018765;28;20032;-60
2023/06/04 11:26:52;;;;;;;3.43;1.03;;;;;;;;;;5034286;28;20051;-59
2023/06/04 11:29:17;;;;;;;4.78;1.10;;;;;;;;;;5033230;28;20209;-59
2023/06/04 11:31:43;;;;;;;3.03;1.10;;;;;;;;;;5033724;28;20091;-59
2023/06/04 11:34:09;;;;;;;3.33;1.00;;;;;;;;;;5033306;28;20018;-59
2023/06/04 11:36:35;;;;;;;3.47;1.00;;;;;;;;;;5032978;28;20014;-59
2023/06/04 11:39:02;;;;;;;3.72;1.10;;;;;;;;;;5031111;28;20377;-59
2023/06/04 11:41:27;;;;;;;3.05;1.00;;;;;;;;;;5026584;28;20058;-60
2023/06/04 11:43:52;;;;;;;3.83;1.13;;;;;;;;;;5031549;28;20456;-60
2023/06/04 11:46:18;;;;;;;2.93;1.00;;;;;;;;;;5032978;28;20024;-59
2023/06/04 11:48:43;;;;;;;3.17;1.10;;;;;;;;;;5013980;28;20030;-59
2023/06/04 11:51:09;;;;;;;4.20;1.10;;;;;;;;;;5026158;28;20032;-59
2023/06/04 11:53:36;;;;;;;5.35;1.02;;;;;;;;;;5031863;28;20025;-59
2023/06/04 11:56:01;;;;;;;3.85;1.02;;;;;;;;;;5033224;28;20021;-60
2023/06/04 11:58:27;;;;;;;2.93;0.97;;;;;;;;;;5032731;28;20108;-59
2023/06/04 12:00:52;;;;;;;3.88;1.30;;;;;;;;;;5031613;28;20048;-59
2023/06/04 12:03:17;;;;;;;3.20;1.03;;;;;;;;;;5031599;28;20025;-59
2023/06/04 12:05:42;;;;;;;5.35;1.25;;;;;;;;;;5029310;28;20025;-60
2023/06/04 12:08:09;;;;;;;5.25;1.25;;;;;;;;;;5031734;28;20017;-61
2023/06/04 12:10:41;;;;;;;5.30;1.20;;;;;;;;;;5023759;28;20021;-61
2023/06/04 12:13:07;;;;;;;3.75;1.30;;;;;;;;;;5032687;28;20409;-60
2023/06/04 12:15:32;;;;;;;5.10;1.27;;;;;;;;;;5032778;28;20021;-60
2023/06/04 12:17:57;;;;;;;3.78;1.45;;;;;;;;;;5032268;28;20017;-60
2023/06/04 12:20:32;;;;;;;4.60;1.00;;;;;;;;;;5014840;28;20512;-60
2023/06/04 12:22:57;;;;;;;3.50;1.10;;;;;;;;;;5031676;28;20033;-60
2023/06/04 12:25:26;;;;;;;3.05;1.20;;;;;;;;;;5025505;28;20028;-61
2023/06/04 12:27:51;;;;;;;6.13;1.40;;;;;;;;;;5031963;28;20070;-59
2023/06/04 12:30:17;;;;;;;3.33;1.50;;;;;;;;;;5029316;28;20021;-59
2023/06/04 12:32:42;;;;;;;4.67;1.30;;;;;;;;;;5031291;28;20363;-59
2023/06/04 12:35:07;;;;;;;3.88;1.20;;;;;;;;;;5032406;28;20448;-59
2023/06/04 12:37:32;;;;;;;4.40;1.30;;;;;;;;;;5031952;28;20526;-59
2023/06/04 12:39:57;;;;;;;3.30;1.10;;;;;;;;;;5031624;28;20056;-59
2023/06/04 12:42:23;;;;;;;3.40;1.13;;;;;;;;;;5032101;28;20477;-60
2023/06/04 12:44:48;;;;;;;4.03;1.20;;;;;;;;;;5017060;28;20486;-60
2023/06/04 12:47:14;;;;;;;7.18;1.25;;;;;;;;;;5023578;28;22824;-60
2023/06/04 12:49:39;;;;;;;3.42;1.10;;;;;;;;;;5028416;28;20131;-60
2023/06/04 12:52:05;;;;;;;4.47;1.20;;;;;;;;;;5027999;28;20104;-60
2023/06/04 12:54:30;;;;;;;4.00;1.30;;;;;;;;;;5011997;28;20413;-60
2023/06/04 12:56:56;;;;;;;3.00;1.10;;;;;;;;;;5011950;28;20990;-60
2023/06/04 12:59:21;;;;;;;5.25;1.20;;;;;;;;;;5011642;28;20441;-60
2023/06/04 13:01:46;;;;;;;4.25;1.20;;;;;;;;;;5015848;28;20009;-60
2023/06/04 13:04:12;;;;;;;3.83;1.13;;;;;;;;;;5030078;28;20028;-60
2023/06/04 13:06:37;;;;;;;4.23;1.20;;;;;;;;;;5031841;28;20101;-60
2023/06/04 13:09:08;;;;;;;3.72;1.35;;;;;;;;;;5030985;28;20021;-60
2023/06/04 13:11:33;;;;;;;5.72;1.50;;;;;;;;;;5031272;28;20017;-61
2023/06/04 13:13:58;;;;;;;3.58;1.30;;;;;;;;;;5031505;28;20518;-60
2023/06/04 13:16:24;;;;;;;4.25;1.20;;;;;;;;;;5031669;28;20025;-60
2023/06/04 13:18:49;;;;;;;3.08;1.17;;;;;;;;;;5028338;28;20025;-61
2023/06/04 13:21:14;;;;;;;3.65;1.10;;;;;;;;;;5031491;28;20485;-59
2023/06/04 13:23:40;;;;;;;3.80;1.10;;;;;;;;;;5031589;28;20330;-59
2023/06/04 13:26:05;;;;;;;4.30;1.08;;;;;;;;;;5021349;28;20456;-60
2023/06/04 13:28:30;;;;;;;3.97;1.20;;;;;;;;;;5020618;28;20103;-59
2023/06/04 13:30:55;;;;;;;3.90;1.20;;;;;;;;;;5030626;28;20025;-59
2023/06/04 13:33:21;;;;;;;2.73;1.00;;;;;;;;;;5031650;28;20017;-59
2023/06/04 13:35:46;;;;;;;3.75;1.10;;;;;;;;;;5033859;28;20512;-59
2023/06/04 13:38:12;;;;;;;4.32;1.20;;;;;;;;;;5032225;28;20021;-59
2023/06/04 13:40:37;;;;;;;3.30;1.20;;;;;;;;;;5015786;28;20026;-59
2023/06/04 13:43:02;;;;;;;4.57;1.20;;;;;;;;;;5018219;28;20021;-60
2023/06/04 13:45:28;;;;;;;3.50;1.20;;;;;;;;;;5030879;28;20017;-59
2023/06/04 13:47:53;;;;;;;4.15;1.23;;;;;;;;;;5030589;28;20033;-60
2023/06/04 13:50:18;;;;;;;4.53;1.40;;;;;;;;;;5030765;28;20075;-59
2023/06/04 13:52:43;;;;;;;3.90;1.27;;;;;;;;;;5031066;28;20370;-59
2023/06/04 13:55:09;;;;;;;3.40;1.30;;;;;;;;;;5014915;28;20057;-59
2023/06/04 13:57:34;;;;;;;4.32;1.05;;;;;;;;;;5012818;28;20022;-60
2023/06/04 14:00:00;;;;;;;3.90;1.35;;;;;;;;;;5029847;28;20055;-59
2023/06/04 14:02:25;;;;;;;5.22;1.40;;;;;;;;;;5030374;28;20029;-59
2023/06/04 14:04:50;;;;;;;3.50;1.13;;;;;;;;;;5030936;28;20048;-59
2023/06/04 14:07:16;;;;;;;4.20;1.27;;;;;;;;;;5026612;28;20029;-60
2023/06/04 14:09:42;;;;;;;4.38;1.25;;;;;;;;;;5030778;28;20021;-60
2023/06/04 14:12:07;;;;;;;4.40;1.30;;;;;;;;;;5031933;28;20018;-60
2023/06/04 14:14:36;;;;;;;4.13;1.10;;;;;;;;;;5030562;28;20385;-59
2023/06/04 14:17:01;;;;;;;6.28;1.15;;;;;;;;;;5015137;28;20142;-59
2023/06/04 14:19:27;;;;;;;3.10;1.10;;;;;;;;;;5019112;28;20498;-60
2023/06/04 14:21:52;;;;;;;3.87;1.17;;;;;;;;;;5029806;28;20064;-60
2023/06/04 14:24:17;;;;;;;4.88;1.17;;;;;;;;;;5030519;28;20436;-60
2023/06/04 14:26:42;;;;;;;4.00;1.10;;;;;;;;;;5027929;28;20025;-59
2023/06/04 14:29:08;;;;;;;3.03;1.10;;;;;;;;;;5024985;28;20040;-59
2023/06/04 14:31:33;;;;;;;3.83;1.10;;;;;;;;;;5028082;28;20112;-59
2023/06/04 14:33:58;;;;;;;3.75;1.20;;;;;;;;;;5030683;28;20393;-59